M I D A S
Marine Information and Data Acquisition System
Tripno 2190 of the Zeeleeuw from 2011-10-03 05:13:32 to 2011-10-03 15:36:37
Back to CruiseResearch ActivitiesStationsMapUnderway DataData graphs

EquipmentUnitsComment
TimeDGPSUTC
LatitudeDGPSDM.mWGS84
LongitudeDGPSDM.mWGS84
TemperatureSBE03/SBE38deg celciusITS90
ConductivitySBE21S/mITS90
SalinitySBE21 Practical Salinity Units
ChlorophylAChelsea fluorimeterg/lCalibrated in Aceton
Missing or incorrect values are displayed as -999
Sea surface data collected by the RV Zeeleeuw from 2011-10-03 05:03:12 to 2011-10-03 15:48:07
Time Latitude Longitude Temperature Conductivity Salinity ChlorophylA
2011-10-03 05:04:15 51°13.638 2°56.004 17.4566 4.319657 33.006216 -3.020363
2011-10-03 05:05:19 51°13.665 2°55.904 17.5426 4.288547 32.723933 -3.020363
2011-10-03 05:06:19 51°13.701 2°55.798 17.5269 4.281184 32.612365 -3.020363
2011-10-03 05:07:19 51°13.764 2°55.702 17.497 4.287718 32.695609 -3.020363
2011-10-03 05:08:20 51°13.844 2°55.629 17.4828 4.29311 32.753801 -3.020363
2011-10-03 05:09:19 51°13.921 2°55.603 17.493 4.294251 32.77256 -3.020363
2011-10-03 05:10:20 51°13.97 2°55.631 17.4956 4.292903 32.756548 -3.020363
2011-10-03 05:11:18 51°13.982 2°55.617 17.5096 4.284296 32.681254 -3.020363
2011-10-03 05:12:17 51°14.044 2°55.514 17.5036 4.270194 32.547648 -3.020363
2011-10-03 05:13:17 51°14.168 2°55.397 17.5135 4.241265 32.30721 -3.020363
2011-10-03 05:14:16 51°14.298 2°55.271 17.5082 4.249871 32.374688 -3.020363
2011-10-03 05:15:17 51°14.435 2°55.139 17.4929 4.26138 32.474539 -3.020363
2011-10-03 05:16:16 51°14.569 2°55.005 17.4225 4.258063 32.469946 -3.020363
2011-10-03 05:17:16 51°14.728 2°54.861 17.4177 4.238571 32.357537 -3.020363
2011-10-03 05:18:16 51°14.893 2°54.689 17.4843 4.29757 32.839027 -3.020363
2011-10-03 05:19:16 51°15.065 2°54.503 17.5399 4.360516 33.327841 -3.020363
2011-10-03 05:20:16 51°15.224 2°54.291 17.5691 4.405631 33.674613 -3.020363
2011-10-03 05:21:16 51°15.396 2°54.102 17.5939 4.42233 33.795511 -3.020363
2011-10-03 05:22:16 51°15.561 2°53.9 17.6044 4.433116 33.869126 -3.020363
2011-10-03 05:23:16 51°15.709 2°53.675 17.5986 4.43934 33.916343 -3.020363
2011-10-03 05:24:16 51°15.877 2°53.483 17.5804 4.440377 33.931879 -3.020363
2011-10-03 05:25:16 51°16.068 2°53.341 17.5648 4.440481 33.94811 -3.020363
2011-10-03 05:26:16 51°16.273 2°53.237 17.5708 4.442971 33.97676 -3.020363
2011-10-03 05:27:16 51°16.475 2°53.126 17.5871 4.445979 33.99649 -3.020363
2011-10-03 05:28:16 51°16.665 2°52.977 17.6063 4.451476 34.027488 -3.020363
2011-10-03 05:29:16 51°16.866 2°52.863 17.604 4.455625 34.051615 -3.020363
2011-10-03 05:30:16 51°17.064 2°52.737 17.576 4.458737 34.085603 -3.020363
2011-10-03 05:31:16 51°17.263 2°52.608 17.547 4.459982 34.119723 -3.020363
2011-10-03 05:32:16 51°17.483 2°52.587 17.5264 4.458427 34.127206 -3.020363
2011-10-03 05:33:16 51°17.706 2°52.623 17.5218 4.462057 34.173115 -3.020363
2011-10-03 05:34:16 51°17.929 2°52.655 17.5616 4.463095 34.175952 -3.020363
2011-10-03 05:35:16 51°18.148 2°52.732 17.583 4.465169 34.157427 -3.020363
2011-10-03 05:36:16 51°18.318 2°52.966 17.5861 4.46911 34.177746 -3.020363
2011-10-03 05:37:16 51°18.468 2°53.239 17.5601 4.469733 34.185091 -3.020363
2011-10-03 05:38:16 51°18.623 2°53.503 17.5257 4.467347 34.187511 -3.020363
2011-10-03 05:39:16 51°18.781 2°53.758 17.5084 4.459568 34.151772 -3.020363
2011-10-03 05:40:16 51°18.933 2°54.024 17.5117 4.442349 34.014921 -3.020363
2011-10-03 05:41:16 51°19.083 2°54.291 17.5237 4.426479 33.867619 -3.020363
2011-10-03 05:42:16 51°19.242 2°54.543 17.5215 4.414655 33.760424 -3.020363
2011-10-03 05:43:16 51°19.4 2°54.799 17.511 4.404594 33.67966 -3.020363
2011-10-03 05:44:16 51°19.549 2°55.07 17.497 4.398786 33.638588 -3.020363
2011-10-03 05:45:16 51°19.711 2°55.318 17.4897 4.386237 33.54909 -3.020363
2011-10-03 05:46:16 51°19.85 2°55.599 17.4785 4.369954 33.413121 -3.020363
2011-10-03 05:47:16 51°19.98 2°55.889 17.4601 4.347864 33.236102 -3.020363
2011-10-03 05:48:16 51°20.122 2°56.167 17.441 4.329612 33.092557 -3.020363
2011-10-03 05:49:16 51°20.26 2°56.451 17.4249 4.31302 32.967092 -3.020363
2011-10-03 05:50:16 51°20.385 2°56.749 17.4123 4.300266 32.86983 -3.020363
2011-10-03 05:51:16 51°20.52 2°57.036 17.3878 4.285645 32.763082 -3.020363
2011-10-03 05:52:16 51°20.66 2°57.318 17.3689 4.275173 32.686554 -3.020363
2011-10-03 05:53:16 51°20.793 2°57.613 17.3589 4.266981 32.628199 -3.020363
2011-10-03 05:54:16 51°20.929 2°57.9 17.3524 4.261071 32.588668 -3.020363
2011-10-03 05:55:16 51°21.058 2°58.195 17.3384 4.255576 32.548804 -3.020363
2011-10-03 05:56:16 51°21.191 2°58.489 17.32 4.248214 32.497489 -3.020363
2011-10-03 05:57:16 51°21.345 2°58.755 17.302 4.242201 32.458315 -3.020363
2011-10-03 05:58:16 51°21.498 2°59.025 17.2907 4.238468 32.434767 -3.020363
2011-10-03 05:59:16 51°21.643 2°59.304 17.2829 4.232559 32.397093 -3.020363
2011-10-03 06:00:16 51°21.785 2°59.589 17.2731 4.2281 32.367964 -3.020363
2011-10-03 06:01:16 51°21.927 2°59.875 17.2711 4.226338 32.356102 -3.020363
2011-10-03 06:02:16 51°22.053 3°0.183 17.2644 4.22582 32.353594 -3.020363
2011-10-03 06:03:16 51°22.193 3°0.474 17.2686 4.22302 32.33607 -3.020363
2011-10-03 06:04:16 51°22.323 3°0.777 17.2586 4.221984 32.328487 -3.020363
2011-10-03 06:05:16 51°22.453 3°1.08 17.261 4.221154 32.322037 -3.020363
2011-10-03 06:06:16 51°22.589 3°1.379 17.2657 4.219392 32.308249 -3.020363
2011-10-03 06:07:16 51°22.721 3°1.682 17.2655 4.220221 32.311498 -3.020363
2011-10-03 06:08:16 51°22.867 3°1.965 17.2644 4.218977 32.305344 -3.020363
2011-10-03 06:09:16 51°23.01 3°2.251 17.2653 4.220428 32.315832 -3.020363
2011-10-03 06:10:16 51°23.139 3°2.554 17.2671 4.222502 32.331638 -3.020363
2011-10-03 06:11:16 51°23.271 3°2.85 17.26 4.22385 32.345084 -3.020363
2011-10-03 06:12:16 51°23.417 3°3.129 17.2591 4.224783 32.356269 -3.020363
2011-10-03 06:13:16 51°23.553 3°3.417 17.2614 4.228723 32.382262 -3.020363
2011-10-03 06:14:17 51°23.715 3°3.678 17.2637 4.229967 32.392901 -3.020363
2011-10-03 06:15:16 51°23.865 3°3.94 17.2708 4.2309 32.402806 -3.020363
2011-10-03 06:16:16 51°24.015 3°4.209 17.2689 4.235047 32.432492 -3.020363
2011-10-03 06:17:16 51°24.135 3°4.512 17.2694 4.237847 32.456434 -3.020363
2011-10-03 06:18:16 51°24.259 3°4.81 17.2698 4.241165 32.485456 -3.020363
2011-10-03 06:19:16 51°24.392 3°5.093 17.2505 4.243135 32.510038 -3.020363
2011-10-03 06:20:16 51°24.525 3°5.379 17.2488 4.243446 32.517856 -3.020363
2011-10-03 06:21:16 51°24.651 3°5.674 17.2413 4.244483 32.533179 -3.020363
2011-10-03 06:22:16 51°24.783 3°5.965 17.2286 4.245105 32.546248 -3.020363
2011-10-03 06:23:16 51°24.922 3°6.247 17.2061 4.245727 32.563201 -3.020363
2011-10-03 06:24:16 51°25.048 3°6.549 17.2007 4.249253 32.607635 -3.020363
2011-10-03 06:25:16 51°25.182 3°6.84 17.1837 4.252053 32.638759 -3.020363
2011-10-03 06:26:16 51°25.32 3°7.127 17.1823 4.256615 32.687615 -3.020363
2011-10-03 06:27:16 51°25.437 3°7.436 17.1739 4.259829 32.718439 -3.020363
2011-10-03 06:28:16 51°25.562 3°7.736 17.1791 4.258689 32.711253 -3.020363
2011-10-03 06:29:16 51°25.693 3°8.03 17.1873 4.25423 32.669756 -3.020363
2011-10-03 06:30:16 51°25.814 3°8.333 17.1892 4.251016 32.636351 -3.020363
2011-10-03 06:31:16 51°25.932 3°8.637 17.1841 4.248527 32.615661 -3.020363
2011-10-03 06:32:16 51°26.06 3°8.93 17.1783 4.246765 32.605729 -3.020363
2011-10-03 06:33:16 51°26.179 3°9.23 17.1692 4.247283 32.614062 -3.020363
2011-10-03 06:34:16 51°26.292 3°9.533 17.1608 4.249046 32.635665 -3.020363
2011-10-03 06:35:16 51°26.388 3°9.848 17.1566 4.252779 32.672235 -3.020363
2011-10-03 06:36:16 51°26.481 3°10.165 17.1454 4.259519 32.736586 -3.020363
2011-10-03 06:37:16 51°26.583 3°10.475 17.1375 4.266569 32.802998 -3.020363
2011-10-03 06:38:16 51°26.685 3°10.782 17.1368 4.269473 32.833814 -3.020363
2011-10-03 06:39:16 51°26.769 3°11.1 17.1399 4.26771 32.818669 -3.020363
2011-10-03 06:40:16 51°26.824 3°11.429 17.1386 4.265636 32.798897 -3.020363
2011-10-03 06:41:16 51°26.879 3°11.757 17.145 4.265118 32.794443 -3.020363
2011-10-03 06:42:16 51°26.945 3°12.082 17.152 4.267503 32.811013 -3.020363
2011-10-03 06:43:17 51°27.001 3°12.414 17.1686 4.274035 32.856676 -3.020363
2011-10-03 06:44:16 51°27.01 3°12.737 17.1822 4.282952 32.922153 -3.020363
2011-10-03 06:45:16 51°26.997 3°13.061 17.1877 4.290729 32.980438 -3.020363
2011-10-03 06:46:16 51°27.013 3°13.389 17.1946 4.297158 33.030416 -3.020363
2011-10-03 06:47:16 51°27.044 3°13.653 17.2133 4.303069 33.073967 -3.020363
2011-10-03 06:48:16 51°27.058 3°13.801 17.2323 4.316446 33.172436 -3.020363
2011-10-03 06:49:16 51°27.062 3°13.89 17.2434 4.322978 33.217354 -3.020363
2011-10-03 06:50:16 51°27.066 3°13.951 17.2506 4.327852 33.249326 -3.020363
2011-10-03 06:51:16 51°27.069 3°14.004 17.2534 4.330652 33.268755 -3.020363
2011-10-03 06:52:16 51°27.066 3°14.062 17.2583 4.332104 33.279243 -3.020363
2011-10-03 06:53:16 51°27.057 3°14.122 17.2561 4.335941 33.29833 -3.020363
2011-10-03 06:54:16 51°27.047 3°14.182 17.2533 4.3348 33.289856 -3.020363
2011-10-03 06:55:16 51°27.035 3°14.243 17.2458 4.331482 33.266642 -3.020363
2011-10-03 06:56:16 51°27.021 3°14.302 17.2321 4.327126 33.23518 -3.020363
2011-10-03 06:57:16 51°27.003 3°14.354 17.2175 4.318727 33.174254 -3.020363
2011-10-03 06:58:16 51°26.982 3°14.4 17.2144 4.311986 33.123614 -3.020363
2011-10-03 06:59:16 51°26.958 3°14.442 17.2048 4.307942 33.090863 -3.020363
2011-10-03 07:00:16 51°26.934 3°14.485 17.1995 4.301617 33.043122 -3.020363
2011-10-03 07:01:16 51°26.911 3°14.527 17.1947 4.296017 33.000951 -3.020363
2011-10-03 07:02:16 51°26.888 3°14.566 17.1925 4.292284 32.97218 -3.020363
2011-10-03 07:03:16 51°26.865 3°14.603 17.1901 4.290832 32.960373 -3.020363
2011-10-03 07:04:16 51°26.842 3°14.641 17.1835 4.286892 32.930475 -3.020363
2011-10-03 07:05:16 51°26.82 3°14.678 17.1772 4.281604 32.890312 -3.020363
2011-10-03 07:06:16 51°26.796 3°14.712 17.1726 4.277249 32.856851 -3.020363
2011-10-03 07:07:16 51°26.773 3°14.745 17.1674 4.275383 32.844094 -3.020363
2011-10-03 07:08:16 51°26.75 3°14.774 17.1663 4.27476 32.842016 -3.020363
2011-10-03 07:09:16 51°26.728 3°14.798 17.1653 4.27476 32.843321 -3.020363
2011-10-03 07:10:16 51°26.705 3°14.819 17.1645 4.276627 32.859343 -3.020363
2011-10-03 07:11:16 51°26.68 3°14.851 17.1656 4.276834 32.863082 -3.020363
2011-10-03 07:12:16 51°26.718 3°14.957 17.1702 4.278804 32.879344 -3.020363
2011-10-03 07:13:16 51°26.81 3°14.906 17.171 4.281604 32.900767 -3.020363
2011-10-03 07:14:16 51°26.804 3°14.749 17.1714 4.283367 32.914595 -3.020363
2011-10-03 07:15:16 51°26.754 3°14.567 17.1717 4.281293 32.894829 -3.020363
2011-10-03 07:16:16 51°26.769 3°14.363 17.1739 4.280463 32.886401 -3.020363
2011-10-03 07:17:16 51°26.834 3°14.214 17.1777 4.279012 32.873939 -3.020363
2011-10-03 07:18:16 51°26.884 3°14.104 17.1805 4.279323 32.872039 -3.020363
2011-10-03 07:19:16 51°26.91 3°14.095 17.1883 4.278908 32.866521 -3.020363
2011-10-03 07:20:19 51°26.935 3°14.099 17.1842 4.282641 32.89268 -3.020363
2011-10-03 07:21:18 51°26.961 3°14.1 17.1892 4.281085 32.881944 -3.020363
2011-10-03 07:22:16 51°26.989 3°14.101 17.1905 4.285129 32.911424 -3.020363
2011-10-03 07:23:16 51°27.019 3°14.101 17.2025 4.283367 32.897603 -3.020363
2011-10-03 07:24:16 51°27.05 3°14.099 17.1933 4.283574 32.886977 -3.020363
2011-10-03 07:25:16 51°27.081 3°14.096 17.1856 4.280982 32.877137 -3.020363
2011-10-03 07:26:16 51°27.111 3°14.09 17.1863 4.279841 32.869308 -3.020363
2011-10-03 07:27:16 51°27.141 3°14.083 17.1869 4.279945 32.87085 -3.020363
2011-10-03 07:28:16 51°27.171 3°14.077 17.1868 4.279945 32.87085 -3.020363
2011-10-03 07:29:16 51°27.201 3°14.07 17.1875 4.280463 32.872036 -3.020363
2011-10-03 07:30:16 51°27.231 3°14.064 17.197 4.281396 32.879391 -3.020363
2011-10-03 07:31:16 51°27.261 3°14.057 17.2025 4.282641 32.883539 -3.020363
2011-10-03 07:32:16 51°27.299 3°14.037 17.1932 4.282848 32.882708 -3.020363
2011-10-03 07:33:16 51°27.388 3°14.02 17.1905 4.283263 32.892795 -3.020363
2011-10-03 07:34:16 51°27.458 3°14.076 17.1969 4.285751 32.914149 -3.020363
2011-10-03 07:35:16 51°27.504 3°14.166 17.2 4.290003 32.946711 -3.020363
2011-10-03 07:36:16 51°27.524 3°14.268 17.1998 4.293321 32.972571 -3.020363
2011-10-03 07:37:16 51°27.538 3°14.347 17.1985 4.293321 32.973226 -3.020363
2011-10-03 07:38:16 51°27.552 3°14.416 17.1992 4.294254 32.980581 -3.020363
2011-10-03 07:39:16 51°27.566 3°14.49 17.2002 4.293943 32.977256 -3.020363
2011-10-03 07:40:16 51°27.582 3°14.571 17.2005 4.294151 32.978382 -3.020363
2011-10-03 07:41:16 51°27.599 3°14.654 17.2012 4.293632 32.974587 -3.020363
2011-10-03 07:42:16 51°27.616 3°14.739 17.1988 4.294462 32.981051 -3.020363
2011-10-03 07:43:16 51°27.631 3°14.823 17.1996 4.294462 32.982361 -3.020363
2011-10-03 07:44:16 51°27.643 3°14.906 17.2016 4.29581 32.993276 -3.020363
2011-10-03 07:45:16 51°27.648 3°14.983 17.2013 4.296743 32.999976 -3.020363
2011-10-03 07:46:16 51°27.644 3°15.053 17.2023 4.298091 33.010891 -3.020363
2011-10-03 07:47:16 51°27.629 3°15.115 17.2025 4.299335 33.020261 -3.020363
2011-10-03 07:48:16 51°27.597 3°15.172 17.204 4.300061 33.025836 -3.020363
2011-10-03 07:49:16 51°27.558 3°15.224 17.2054 4.301409 33.036751 -3.020363
2011-10-03 07:50:16 51°27.511 3°15.256 17.2081 4.30369 33.054366 -3.020363
2011-10-03 07:51:16 51°27.462 3°15.275 17.2101 4.306387 33.075541 -3.020363
2011-10-03 07:52:16 51°27.413 3°15.296 17.2074 4.308875 33.096905 -3.020363
2011-10-03 07:53:16 51°27.363 3°15.307 17.207 4.310431 33.111574 -3.020363
2011-10-03 07:54:16 51°27.312 3°15.302 17.21 4.312401 33.128491 -3.020363
2011-10-03 07:55:16 51°27.262 3°15.287 17.2095 4.312816 33.130737 -3.020363
2011-10-03 07:56:16 51°27.214 3°15.247 17.2097 4.311053 33.114944 -3.020363
2011-10-03 07:57:16 51°27.175 3°15.187 17.2072 4.308772 33.096015 -3.020363
2011-10-03 07:58:16 51°27.143 3°15.133 17.2049 4.306387 33.078166 -3.020363
2011-10-03 07:59:16 51°27.112 3°15.083 17.2024 4.304416 33.062565 -3.020363
2011-10-03 08:00:16 51°27.08 3°15.035 17.2014 4.302135 33.044293 -3.020363
2011-10-03 08:01:16 51°27.048 3°14.989 17.2024 4.299646 33.023586 -3.020363
2011-10-03 08:02:16 51°27.014 3°14.945 17.2022 4.297884 33.007801 -3.020363
2011-10-03 08:03:16 51°26.979 3°14.902 17.2023 4.296121 32.992672 -3.020363
2011-10-03 08:04:16 51°26.944 3°14.853 17.2038 4.294254 32.976654 -3.020363
2011-10-03 08:05:16 51°26.911 3°14.801 17.204 4.292802 32.963542 -3.020363
2011-10-03 08:06:16 51°26.877 3°14.749 17.2032 4.291558 32.952211 -3.020363
2011-10-03 08:07:16 51°26.85 3°14.682 17.2032 4.289899 32.937976 -3.020363
2011-10-03 08:08:16 51°26.844 3°14.59 17.2021 4.288344 32.925285 -3.020363
2011-10-03 08:09:16 51°26.865 3°14.489 17.2011 4.286892 32.914137 -3.020363
2011-10-03 08:10:16 51°26.91 3°14.412 17.2021 4.286166 32.908563 -3.020363
2011-10-03 08:11:16 51°26.959 3°14.347 17.2051 4.286581 32.910162 -3.020363
2011-10-03 08:12:16 51°27.041 3°14.238 17.2068 4.288136 32.923506 -3.020363
2011-10-03 08:13:16 51°27.117 3°14.1 17.2105 4.290832 32.944022 -3.020363
2011-10-03 08:14:16 51°27.157 3°14.005 17.2098 4.292906 32.959853 -3.020363
2011-10-03 08:15:16 51°27.187 3°13.937 17.2098 4.293425 32.964301 -3.020363
2011-10-03 08:16:16 51°27.215 3°13.885 17.2082 4.293321 32.963412 -3.020363
2011-10-03 08:17:16 51°27.241 3°13.845 17.2074 4.292906 32.960507 -3.020363
2011-10-03 08:18:16 51°27.268 3°13.812 17.2075 4.292699 32.960036 -3.020363
2011-10-03 08:19:16 51°27.302 3°13.738 17.2099 4.292699 32.959382 -3.020363
2011-10-03 08:20:16 51°27.363 3°13.507 17.2046 4.292388 32.954097 -3.020363
2011-10-03 08:21:16 51°27.398 3°13.192 17.2018 4.286477 32.907966 -3.020363
2011-10-03 08:22:16 51°27.41 3°12.856 17.1943 4.281292 32.866104 -3.020363
2011-10-03 08:23:16 51°27.431 3°12.518 17.1826 4.27559 32.823706 -3.020363
2011-10-03 08:24:16 51°27.441 3°12.18 17.1618 4.267398 32.764513 -3.020363
2011-10-03 08:25:16 51°27.452 3°11.843 17.1571 4.259518 32.710571 -3.020363
2011-10-03 08:26:16 51°27.475 3°11.505 17.1575 4.257133 32.692712 -3.020363
2011-10-03 08:27:16 51°27.492 3°11.168 17.1639 4.255682 32.679611 -3.020363
2011-10-03 08:28:16 51°27.506 3°10.832 17.166 4.255682 32.675716 -3.020363
2011-10-03 08:29:16 51°27.549 3°10.501 17.1764 4.254852 32.664709 -3.020363
2011-10-03 08:30:16 51°27.614 3°10.176 17.1828 4.253815 32.646741 -3.020363
2011-10-03 08:31:16 51°27.687 3°9.852 17.1782 4.254645 32.653204 -3.020363
2011-10-03 08:32:16 51°27.752 3°9.527 17.1762 4.254541 32.653611 -3.020363
2011-10-03 08:33:16 51°27.825 3°9.207 17.1743 4.254748 32.658631 -3.020363
2011-10-03 08:34:16 51°27.901 3°8.889 17.1794 4.256926 32.676003 -3.020363
2011-10-03 08:35:16 51°27.957 3°8.565 17.1926 4.2562 32.665888 -3.020363
2011-10-03 08:36:16 51°28.013 3°8.243 17.201 4.252052 32.619975 -3.020363
2011-10-03 08:37:16 51°28.077 3°7.921 17.1959 4.252156 32.616979 -3.020363
2011-10-03 08:38:16 51°28.143 3°7.6 17.1891 4.255785 32.650666 -3.020363
2011-10-03 08:39:16 51°28.21 3°7.28 17.1778 4.261799 32.709998 -3.020363
2011-10-03 08:40:16 51°28.262 3°6.952 17.1714 4.269057 32.778744 -3.020363
2011-10-03 08:41:16 51°28.319 3°6.627 17.1726 4.280982 32.884972 -3.020363
2011-10-03 08:42:16 51°28.389 3°6.308 17.1739 4.293425 32.991142 -3.020363
2011-10-03 08:43:16 51°28.448 3°5.985 17.1786 4.300476 33.050386 -3.020363
2011-10-03 08:44:16 51°28.513 3°5.662 17.1882 4.305143 33.085869 -3.020363
2011-10-03 08:45:16 51°28.578 3°5.339 17.1995 4.307009 33.093359 -3.020363
2011-10-03 08:46:16 51°28.633 3°5.012 17.2086 4.308772 33.099956 -3.020363
2011-10-03 08:47:16 51°28.682 3°4.683 17.2159 4.31012 33.104961 -3.020363
2011-10-03 08:48:16 51°28.739 3°4.357 17.2112 4.311468 33.112592 -3.020363
2011-10-03 08:49:16 51°28.79 3°4.028 17.2099 4.31209 33.122533 -3.020363
2011-10-03 08:50:16 51°28.843 3°3.7 17.1993 4.313542 33.136313 -3.020363
2011-10-03 08:51:16 51°28.897 3°3.376 17.1347 4.310742 33.133971 -3.020363
2011-10-03 08:52:16 51°28.945 3°3.05 17.1028 4.301514 33.094791 -3.020363
2011-10-03 08:53:16 51°28.995 3°2.726 17.0853 4.294463 33.05915 -3.020363
2011-10-03 08:54:16 51°29.054 3°2.405 17.089 4.293115 33.056107 -3.020363
2011-10-03 08:55:16 51°29.129 3°2.094 17.1133 4.294152 33.059106 -3.020363
2011-10-03 08:56:16 51°29.205 3°1.785 17.1265 4.286375 32.974485 -3.020363
2011-10-03 08:57:16 51°29.269 3°1.472 17.1263 4.280049 32.909645 -3.020363
2011-10-03 08:58:16 51°29.336 3°1.157 17.1099 4.286063 32.969844 -3.020363
2011-10-03 08:59:16 51°29.409 3°0.841 17.0883 4.304729 33.140889 -3.020363
2011-10-03 09:00:16 51°29.47 3°0.517 17.095 4.316551 33.257194 -3.020363
2011-10-03 09:01:16 51°29.527 3°0.19 17.102 4.317069 33.2557 -3.020363
2011-10-03 09:02:16 51°29.597 2°59.868 17.1048 4.319869 33.275837 -3.020363
2011-10-03 09:03:16 51°29.662 2°59.543 17.1067 4.323706 33.307553 -3.020363
2011-10-03 09:04:16 51°29.734 2°59.221 17.1038 4.326921 33.331923 -3.020363
2011-10-03 09:05:16 51°29.821 2°58.908 17.1132 4.329202 33.352899 -3.020363
2011-10-03 09:06:16 51°29.898 2°58.595 17.0922 4.33698 33.416575 -3.020363
2011-10-03 09:07:16 51°29.975 2°58.284 17.0824 4.347247 33.523056 -3.020363
2011-10-03 09:08:16 51°30.058 2°57.975 17.079 4.352121 33.57044 -3.020363
2011-10-03 09:09:16 51°30.14 2°57.665 17.0746 4.356684 33.612484 -3.020363
2011-10-03 09:10:16 51°30.223 2°57.355 17.0714 4.359173 33.636641 -3.020363
2011-10-03 09:11:16 51°30.295 2°57.037 17.0726 4.36384 33.680275 -3.020363
2011-10-03 09:12:16 51°30.369 2°56.719 17.0857 4.368196 33.713177 -3.020363
2011-10-03 09:13:16 51°30.451 2°56.405 17.0982 4.37473 33.762187 -3.020363
2011-10-03 09:14:16 51°30.524 2°56.085 17.1096 4.377426 33.772685 -3.020363
2011-10-03 09:15:16 51°30.593 2°55.762 17.1133 4.378878 33.777145 -3.020363
2011-10-03 09:16:16 51°30.671 2°55.447 17.1005 4.378982 33.779385 -3.020363
2011-10-03 09:17:16 51°30.753 2°55.133 17.0994 4.377115 33.769327 -3.020363
2011-10-03 09:18:16 51°30.824 2°54.81 17.1158 4.377115 33.768655 -3.020363
2011-10-03 09:19:16 51°30.898 2°54.492 17.1264 4.379396 33.774225 -3.020363
2011-10-03 09:20:16 51°30.972 2°54.175 17.1411 4.381367 33.78383 -3.020363
2011-10-03 09:21:16 51°31.051 2°53.862 17.151 4.38313 33.788955 -3.020363
2011-10-03 09:22:16 51°31.135 2°53.554 17.1362 4.387071 33.818909 -3.020363
2011-10-03 09:23:16 51°31.219 2°53.25 17.126 4.395265 33.900368 -3.020363
2011-10-03 09:24:16 51°31.3 2°52.945 17.1279 4.397132 33.921878 -3.020363
2011-10-03 09:25:16 51°31.365 2°52.67 17.1393 4.399517 33.937742 -3.020363
2011-10-03 09:26:16 51°31.42 2°52.441 17.1602 4.405014 33.976405 -3.020363
2011-10-03 09:27:16 51°31.442 2°52.29 17.17 4.41912 34.082588 -3.020363
2011-10-03 09:28:16 51°31.45 2°52.224 17.1801 4.429595 34.164198 -3.020363
2011-10-03 09:29:16 51°31.462 2°52.213 17.1785 4.433744 34.19458 -3.020363
2011-10-03 09:30:16 51°31.476 2°52.211 17.1813 4.434678 34.203998 -3.020363
2011-10-03 09:31:16 51°31.49 2°52.213 17.1935 4.435404 34.205508 -3.020363
2011-10-03 09:32:16 51°31.502 2°52.217 17.2322 4.437789 34.214545 -3.020363
2011-10-03 09:33:16 51°31.514 2°52.223 17.2105 4.442664 34.227389 -3.020363
2011-10-03 09:34:16 51°31.524 2°52.228 17.2002 4.441627 34.239507 -3.020363
2011-10-03 09:35:16 51°31.534 2°52.235 17.1885 4.440694 34.240971 -3.020363
2011-10-03 09:36:16 51°31.544 2°52.242 17.1822 4.439968 34.238785 -3.020363
2011-10-03 09:37:16 51°31.553 2°52.25 17.1865 4.440279 34.246914 -3.020363
2011-10-03 09:38:16 51°31.562 2°52.258 17.1906 4.440175 34.241256 -3.020363
2011-10-03 09:39:16 51°31.57 2°52.265 17.1953 4.440486 34.241901 -3.020363
2011-10-03 09:40:16 51°31.579 2°52.274 17.1939 4.441212 34.242726 -3.020363
2011-10-03 09:41:16 51°31.586 2°52.281 17.1954 4.44142 34.246558 -3.020363
2011-10-03 09:42:16 51°31.594 2°52.288 17.1897 4.44225 34.25372 -3.020363
2011-10-03 09:43:16 51°31.609 2°52.288 17.1948 4.442768 34.26228 -3.020363
2011-10-03 09:44:16 51°31.658 2°52.301 17.1896 4.442872 34.258412 -3.020363
2011-10-03 09:45:16 51°31.67 2°52.381 17.1923 4.443598 34.266721 -3.020363
2011-10-03 09:46:16 51°31.647 2°52.451 17.1888 4.444013 34.268941 -3.020363
2011-10-03 09:47:16 51°31.624 2°52.509 17.1848 4.442872 34.262495 -3.020363
2011-10-03 09:48:16 51°31.602 2°52.559 17.1751 4.437893 34.223597 -3.020363
2011-10-03 09:49:16 51°31.577 2°52.606 17.1648 4.430114 34.164601 -3.020363
2011-10-03 09:50:16 51°31.547 2°52.658 17.1612 4.426069 34.137828 -3.020363
2011-10-03 09:51:16 51°31.516 2°52.713 17.1558 4.42192 34.104727 -3.020363
2011-10-03 09:52:16 51°31.484 2°52.769 17.1489 4.416527 34.063594 -3.020363
2011-10-03 09:53:16 51°31.451 2°52.823 17.1394 4.414452 34.051106 -3.020363
2011-10-03 09:54:16 51°31.419 2°52.882 17.1401 4.412482 34.040189 -3.020363
2011-10-03 09:55:16 51°31.386 2°52.947 17.1334 4.406051 33.98468 -3.020363
2011-10-03 09:56:16 51°31.352 2°53.012 17.1347 4.403977 33.972183 -3.020363
2011-10-03 09:57:16 51°31.319 2°53.074 17.1323 4.405221 33.982927 -3.020363
2011-10-03 09:58:16 51°31.286 2°53.133 17.1321 4.405844 33.991003 -3.020363
2011-10-03 09:59:16 51°31.254 2°53.187 17.1317 4.402525 33.95965 -3.020363
2011-10-03 10:00:16 51°31.22 2°53.243 17.13 4.401384 33.95183 -3.020363
2011-10-03 10:01:16 51°31.185 2°53.298 17.1312 4.39931 33.934601 -3.020363
2011-10-03 10:02:16 51°31.153 2°53.354 17.1512 4.398895 33.926971 -3.020363
2011-10-03 10:03:16 51°31.121 2°53.41 17.1419 4.39319 33.864279 -3.020363
2011-10-03 10:04:16 51°31.088 2°53.466 17.1429 4.391946 33.862971 -3.020363
2011-10-03 10:05:16 51°31.055 2°53.519 17.152 4.389871 33.839022 -3.020363
2011-10-03 10:06:16 51°31.02 2°53.567 17.1458 4.388004 33.820905 -3.020363
2011-10-03 10:07:16 51°30.985 2°53.62 17.1442 4.383337 33.785368 -3.020363
2011-10-03 10:08:16 51°30.948 2°53.675 17.1384 4.387382 33.820247 -3.020363
2011-10-03 10:09:16 51°30.912 2°53.731 17.1391 4.386656 33.818021 -3.020363
2011-10-03 10:10:16 51°30.874 2°53.782 17.1384 4.386137 33.812876 -3.020363
2011-10-03 10:11:16 51°30.835 2°53.829 17.1325 4.386241 33.816461 -3.020363
2011-10-03 10:12:16 51°30.797 2°53.876 17.1258 4.38676 33.822952 -3.020363
2011-10-03 10:13:16 51°30.759 2°53.923 17.125 4.386449 33.826324 -3.020363
2011-10-03 10:14:16 51°30.722 2°53.97 17.1318 4.385204 33.815587 -3.020363
2011-10-03 10:15:16 51°30.686 2°54.017 17.1309 4.383648 33.79746 -3.020363
2011-10-03 10:16:16 51°30.651 2°54.062 17.1222 4.382404 33.788742 -3.020363
2011-10-03 10:17:16 51°30.615 2°54.104 17.1067 4.380952 33.783612 -3.020363
2011-10-03 10:18:16 51°30.579 2°54.146 17.1015 4.379293 33.78207 -3.020363
2011-10-03 10:19:16 51°30.539 2°54.193 17.1 4.377945 33.772453 -3.020363
2011-10-03 10:20:16 51°30.461 2°54.17 17.1049 4.377945 33.768419 -3.020363
2011-10-03 10:21:16 51°30.465 2°54.021 17.1061 4.378359 33.771326 -3.020363
2011-10-03 10:22:16 51°30.56 2°53.85 17.0996 4.378048 33.773348 -3.020363
2011-10-03 10:23:16 51°30.719 2°53.691 17.1325 4.378774 33.780285 -3.020363
2011-10-03 10:24:16 51°30.879 2°53.488 17.1508 4.384271 33.798793 -3.020363
2011-10-03 10:25:16 51°31.036 2°53.288 17.1768 4.387589 33.81195 -3.020363
2011-10-03 10:26:16 51°31.203 2°53.102 17.1803 4.391012 33.82129 -3.020363
2011-10-03 10:27:16 51°31.363 2°52.912 17.161 4.406051 33.95969 -3.020363
2011-10-03 10:28:16 51°31.525 2°52.719 17.1722 4.411652 34.013407 -3.020363
2011-10-03 10:29:16 51°31.695 2°52.544 17.1918 4.415593 34.037265 -3.020363
2011-10-03 10:30:16 51°31.857 2°52.351 17.2209 4.431773 34.157883 -3.020363
2011-10-03 10:31:16 51°32.014 2°52.146 17.2225 4.445361 34.256766 -3.020363
2011-10-03 10:32:16 51°32.18 2°51.962 17.2302 4.446917 34.266788 -3.020363
2011-10-03 10:33:16 51°32.341 2°51.769 17.2314 4.448369 34.273874 -3.020363
2011-10-03 10:34:16 51°32.502 2°51.576 17.2378 4.449302 34.281246 -3.020363
2011-10-03 10:35:16 51°32.658 2°51.37 17.2362 4.450132 34.285003 -3.020363
2011-10-03 10:36:16 51°32.82 2°51.174 17.2423 4.450547 34.28654 -3.020363
2011-10-03 10:37:16 51°32.983 2°50.983 17.2516 4.451792 34.293194 -3.020363
2011-10-03 10:38:16 51°33.152 2°50.814 17.2666 4.454281 34.304458 -3.020363
2011-10-03 10:39:16 51°33.328 2°50.662 17.2913 4.464758 34.379127 -3.020363
2011-10-03 10:40:16 51°33.491 2°50.476 17.287 4.471189 34.422303 -3.020363
2011-10-03 10:41:16 51°33.652 2°50.277 17.2949 4.470566 34.418983 -3.020363
2011-10-03 10:42:16 51°33.817 2°50.093 17.2881 4.470877 34.416893 -3.020363
2011-10-03 10:43:16 51°33.983 2°49.914 17.2863 4.47067 34.416468 -3.020363
2011-10-03 10:44:16 51°34.147 2°49.724 17.2828 4.470878 34.41962 -3.020363
2011-10-03 10:45:16 51°34.308 2°49.53 17.2928 4.470981 34.418469 -3.020363
2011-10-03 10:46:16 51°34.474 2°49.348 17.2937 4.47233 34.428729 -3.020363
2011-10-03 10:47:16 51°34.634 2°49.155 17.2866 4.473367 34.436307 -3.020363
2011-10-03 10:48:16 51°34.791 2°48.956 17.2766 4.47316 34.439976 -3.020363
2011-10-03 10:49:16 51°34.948 2°48.76 17.2551 4.471811 34.441998 -3.020363
2011-10-03 10:50:16 51°35.105 2°48.563 17.2498 4.470256 34.440867 -3.020363
2011-10-03 10:51:16 51°35.264 2°48.374 17.2454 4.470152 34.447486 -3.020363
2011-10-03 10:52:16 51°35.422 2°48.184 17.2406 4.470982 34.456697 -3.020363
2011-10-03 10:53:16 51°35.577 2°47.984 17.2339 4.472019 34.469067 -3.020363
2011-10-03 10:54:16 51°35.741 2°47.807 17.2303 4.472746 34.482176 -3.020363
2011-10-03 10:55:16 51°35.903 2°47.628 17.2237 4.47399 34.493606 -3.020363
2011-10-03 10:56:16 51°36.062 2°47.439 17.2195 4.47482 34.507619 -3.020363
2011-10-03 10:57:16 51°36.22 2°47.249 17.2177 4.475339 34.513468 -3.020363
2011-10-03 10:58:16 51°36.383 2°47.07 17.2153 4.47648 34.527435 -3.020363
2011-10-03 10:59:16 51°36.546 2°46.888 17.2059 4.476999 34.533972 -3.020363
2011-10-03 11:00:16 51°36.708 2°46.693 17.2022 4.476792 34.540409 -3.020363
2011-10-03 11:01:16 51°36.87 2°46.497 17.1953 4.47648 34.541836 -3.020363
2011-10-03 11:02:16 51°37.036 2°46.315 17.2027 4.476377 34.542312 -3.020363
2011-10-03 11:03:16 51°37.204 2°46.128 17.2267 4.477103 34.537611 -3.020363
2011-10-03 11:04:16 51°37.37 2°45.945 17.2351 4.477932 34.531753 -3.020363
2011-10-03 11:05:16 51°37.542 2°45.789 17.2414 4.477828 34.522635 -3.020363
2011-10-03 11:06:16 51°37.714 2°45.645 17.2562 4.477517 34.511047 -3.020363
2011-10-03 11:07:16 51°37.884 2°45.491 17.2621 4.478139 34.506153 -3.020363
2011-10-03 11:08:16 51°38.05 2°45.331 17.2692 4.47845 34.503365 -3.020363
2011-10-03 11:09:16 51°38.226 2°45.215 17.264 4.478865 34.503525 -3.020363
2011-10-03 11:10:16 51°38.408 2°45.128 17.26 4.478139 34.502732 -3.020363
2011-10-03 11:11:16 51°38.589 2°45.037 17.2595 4.477517 34.500782 -3.020363
2011-10-03 11:12:16 51°38.772 2°44.941 17.2599 4.477206 34.501517 -3.020363
2011-10-03 11:13:16 51°38.954 2°44.845 17.255 4.477621 34.500309 -3.020363
2011-10-03 11:14:16 51°39.134 2°44.743 17.2565 4.477724 34.504625 -3.020363
2011-10-03 11:15:16 51°39.316 2°44.644 17.2561 4.478139 34.507521 -3.020363
2011-10-03 11:16:16 51°39.498 2°44.548 17.2534 4.478451 34.510891 -3.020363
2011-10-03 11:17:16 51°39.678 2°44.447 17.2589 4.478762 34.513576 -3.020363
2011-10-03 11:18:16 51°39.859 2°44.345 17.2624 4.479384 34.514157 -3.020363
2011-10-03 11:19:16 51°40.04 2°44.262 17.2607 4.479592 34.515947 -3.020363
2011-10-03 11:20:16 51°40.222 2°44.17 17.2603 4.479695 34.516842 -3.020363
2011-10-03 11:21:16 51°40.403 2°44.074 17.2585 4.479592 34.517316 -3.020363
2011-10-03 11:22:16 51°40.584 2°43.987 17.2516 4.479592 34.519369 -3.020363
2011-10-03 11:23:16 51°40.767 2°43.899 17.254 4.479592 34.522107 -3.020363
2011-10-03 11:24:16 51°40.949 2°43.806 17.2585 4.476583 34.494778 -3.020363
2011-10-03 11:25:16 51°41.13 2°43.713 17.2581 4.475753 34.483515 -3.020363
2011-10-03 11:26:16 51°41.313 2°43.628 17.2585 4.480836 34.52395 -3.020363
2011-10-03 11:27:16 51°41.495 2°43.54 17.2622 4.480629 34.526952 -3.020363
2011-10-03 11:28:16 51°41.678 2°43.455 17.248 4.481044 34.531217 -3.020363
2011-10-03 11:29:16 51°41.86 2°43.365 17.2451 4.480214 34.532272 -3.020363
2011-10-03 11:30:16 51°42.041 2°43.275 17.2446 4.480525 34.534274 -3.020363
2011-10-03 11:31:16 51°42.224 2°43.193 17.248 4.480422 34.538173 -3.020363
2011-10-03 11:32:16 51°42.406 2°43.119 17.2497 4.481044 34.542176 -3.020363
2011-10-03 11:33:16 51°42.588 2°43.031 17.2375 4.481978 34.549551 -3.020363
2011-10-03 11:34:16 51°42.772 2°42.953 17.2312 4.481978 34.559834 -3.020363
2011-10-03 11:35:16 51°42.957 2°42.879 17.2229 4.482289 34.565951 -3.020363
2011-10-03 11:36:16 51°43.14 2°42.798 17.2093 4.481874 34.571973 -3.020363
2011-10-03 11:37:16 51°43.324 2°42.723 17.1966 4.481771 34.578627 -3.020363
2011-10-03 11:38:16 51°43.505 2°42.642 17.1963 4.481356 34.583283 -3.020363
2011-10-03 11:39:16 51°43.686 2°42.562 17.1801 4.481149 34.586986 -3.020363
2011-10-03 11:40:16 51°43.868 2°42.483 17.1865 4.480319 34.589433 -3.020363
2011-10-03 11:41:16 51°44.048 2°42.407 17.1741 4.481045 34.592274 -3.020363
2011-10-03 11:42:16 51°44.229 2°42.326 17.1578 4.479697 34.593677 -3.020363
2011-10-03 11:43:16 51°44.411 2°42.267 17.1576 4.478659 34.586768 -3.020363
2011-10-03 11:44:16 51°44.592 2°42.226 17.1673 4.478037 34.587574 -3.020363
2011-10-03 11:45:16 51°44.744 2°42.26 17.1538 4.478556 34.587934 -3.020363
2011-10-03 11:46:16 51°44.877 2°42.335 17.1464 4.477726 34.589009 -3.020363
2011-10-03 11:47:16 51°45.004 2°42.296 17.1534 4.477207 34.587274 -3.020363
2011-10-03 11:48:16 51°45.042 2°42.153 17.1472 4.477726 34.590385 -3.020363
2011-10-03 11:49:16 51°45.012 2°42.048 17.1517 4.477311 34.594364 -3.020363
2011-10-03 11:50:16 51°44.962 2°42.002 17.1419 4.478037 34.595142 -3.020363
2011-10-03 11:51:16 51°44.915 2°42.008 17.1595 4.477726 34.593825 -3.020363
2011-10-03 11:52:16 51°44.861 2°42.021 17.1584 4.478867 34.595441 -3.020363
2011-10-03 11:53:16 51°44.803 2°42.032 17.1534 4.478867 34.595441 -3.020363
2011-10-03 11:54:16 51°44.749 2°42.042 17.1574 4.478452 34.593227 -3.020363
2011-10-03 11:55:16 51°44.696 2°42.049 17.1585 4.478763 34.590416 -3.020363
2011-10-03 11:56:16 51°44.643 2°42.052 17.148 4.478037 34.593078 -3.020363
2011-10-03 11:57:16 51°44.591 2°42.056 17.1389 4.477415 34.587693 -3.020363
2011-10-03 11:58:16 51°44.539 2°42.064 17.1333 4.476377 34.583534 -3.020363
2011-10-03 11:59:16 51°44.485 2°42.074 17.1323 4.475133 34.581019 -3.020363
2011-10-03 12:00:16 51°44.432 2°42.085 17.1379 4.474718 34.579492 -3.020363
2011-10-03 12:01:16 51°44.381 2°42.093 17.1514 4.47534 34.576622 -3.020363
2011-10-03 12:02:16 51°44.332 2°42.104 17.1356 4.475962 34.578568 -3.020363
2011-10-03 12:03:16 51°44.282 2°42.118 17.1255 4.474614 34.578595 -3.020363
2011-10-03 12:04:16 51°44.231 2°42.126 17.1391 4.473784 34.576917 -3.020363
2011-10-03 12:05:16 51°44.177 2°42.134 17.1492 4.475029 34.574618 -3.020363
2011-10-03 12:06:16 51°44.124 2°42.139 17.1341 4.475651 34.577939 -3.020363
2011-10-03 12:07:16 51°44.07 2°42.143 17.1465 4.474407 34.574047 -3.020363
2011-10-03 12:08:16 51°44.017 2°42.15 17.1328 4.47617 34.581051 -3.020363
2011-10-03 12:09:16 51°43.966 2°42.156 17.1361 4.47534 34.581438 -3.020363
2011-10-03 12:10:16 51°43.915 2°42.164 17.1386 4.475548 34.581857 -3.020363
2011-10-03 12:11:16 51°43.867 2°42.176 17.1448 4.475651 34.582755 -3.020363
2011-10-03 12:12:16 51°43.82 2°42.185 17.1401 4.476274 34.583324 -3.020363
2011-10-03 12:13:16 51°43.772 2°42.189 17.145 4.475963 34.584072 -3.020363
2011-10-03 12:14:16 51°43.723 2°42.192 17.1467 4.476585 34.582577 -3.020363
2011-10-03 12:15:16 51°43.675 2°42.202 17.1505 4.476792 34.583684 -3.020363
2011-10-03 12:16:16 51°43.625 2°42.21 17.1536 4.476792 34.582309 -3.020363
2011-10-03 12:17:16 51°43.575 2°42.216 17.1557 4.477518 34.583088 -3.020363
2011-10-03 12:18:16 51°43.527 2°42.221 17.1526 4.477518 34.584463 -3.020363
2011-10-03 12:19:16 51°43.479 2°42.223 17.1542 4.477103 34.582937 -3.020363
2011-10-03 12:20:16 51°43.429 2°42.227 17.1527 4.477207 34.582459 -3.020363
2011-10-03 12:21:16 51°43.383 2°42.235 17.1555 4.477103 34.581562 -3.020363
2011-10-03 12:22:16 51°43.335 2°42.243 17.1645 4.477311 34.579918 -3.020363
2011-10-03 12:23:16 51°43.293 2°42.255 17.1604 4.477726 34.580069 -3.020363
2011-10-03 12:24:16 51°43.248 2°42.264 17.1647 4.477207 34.580396 -3.020363
2011-10-03 12:25:16 51°43.192 2°42.272 17.1691 4.477829 34.578904 -3.020363
2011-10-03 12:26:16 51°43.133 2°42.156 17.1747 4.477414 34.569818 -3.020363
2011-10-03 12:27:16 51°43.202 2°42.11 17.1605 4.477622 34.573673 -3.020363
2011-10-03 12:28:16 51°43.33 2°42.106 17.1649 4.47617 34.569362 -3.020363
2011-10-03 12:29:16 51°43.471 2°42.129 17.156 4.476999 34.572415 -3.020363
2011-10-03 12:30:16 51°43.605 2°42.121 17.155 4.476377 34.573906 -3.020363
2011-10-03 12:31:16 51°43.72 2°42.177 17.1549 4.476066 34.573964 -3.020363
2011-10-03 12:32:16 51°43.838 2°42.18 17.1497 4.479386 34.601304 -3.020363
2011-10-03 12:33:16 51°43.947 2°42.186 17.1437 4.478348 34.597834 -3.020363
2011-10-03 12:34:16 51°44.063 2°42.195 17.1459 4.47783 34.596787 -3.020363
2011-10-03 12:35:16 51°44.214 2°42.19 17.1473 4.477933 34.596309 -3.020363
2011-10-03 12:36:16 51°44.393 2°42.154 17.1448 4.477518 34.587903 -3.020363
2011-10-03 12:37:16 51°44.564 2°42.038 17.1402 4.477933 34.597685 -3.020363
2011-10-03 12:38:16 51°44.745 2°42.036 17.1459 4.478141 34.59948 -3.020363
2011-10-03 12:39:16 51°44.896 2°41.937 17.1463 4.47866 34.602592 -3.020363
2011-10-03 12:40:16 51°44.987 2°41.892 17.1479 4.479489 34.608395 -3.020363
2011-10-03 12:41:16 51°45.007 2°41.872 17.1448 4.479593 34.611358 -3.020363
2011-10-03 12:42:16 51°44.996 2°41.861 17.1453 4.479904 34.611986 -3.020363
2011-10-03 12:43:16 51°44.985 2°41.853 17.133 4.479178 34.61121 -3.020363
2011-10-03 12:44:16 51°44.973 2°41.844 17.1439 4.478867 34.611272 -3.020363
2011-10-03 12:45:16 51°44.961 2°41.834 17.1324 4.479386 34.612317 -3.020363
2011-10-03 12:46:16 51°44.951 2°41.825 17.1435 4.477934 34.609389 -3.020363
2011-10-03 12:47:16 51°44.941 2°41.814 17.1528 4.479282 34.610731 -3.020363
2011-10-03 12:48:16 51°44.933 2°41.803 17.1534 4.479697 34.608125 -3.020363
2011-10-03 12:49:16 51°44.923 2°41.792 17.148 4.479904 34.609232 -3.020363
2011-10-03 12:50:16 51°44.914 2°41.782 17.1517 4.479801 34.608335 -3.020363
2011-10-03 12:51:16 51°44.907 2°41.774 17.1482 4.480008 34.61013 -3.020363
2011-10-03 12:52:16 51°44.898 2°41.765 17.1487 4.479178 34.604326 -3.020363
2011-10-03 12:53:16 51°44.891 2°41.755 17.147 4.479074 34.606182 -3.020363
2011-10-03 12:54:16 51°44.883 2°41.745 17.1476 4.479178 34.605703 -3.020363
2011-10-03 12:55:16 51°44.875 2°41.736 17.1388 4.479697 34.61019 -3.020363
2011-10-03 12:56:16 51°44.865 2°41.729 17.1363 4.477934 34.605258 -3.020363
2011-10-03 12:57:16 51°44.854 2°41.722 17.1386 4.477622 34.601876 -3.020363
2011-10-03 12:58:16 51°44.843 2°41.719 17.14 4.478141 34.604299 -3.020363
2011-10-03 12:59:16 51°44.831 2°41.715 17.1341 4.478867 34.61196 -3.020363
2011-10-03 13:00:16 51°44.82 2°41.712 17.1352 4.478556 34.611333 -3.020363
2011-10-03 13:01:16 51°44.808 2°41.707 17.1385 4.478556 34.607201 -3.020363
2011-10-03 13:02:16 51°44.821 2°41.679 17.14 4.478763 34.610374 -3.020363
2011-10-03 13:03:16 51°44.855 2°41.719 17.1458 4.478141 34.602234 -3.020363
2011-10-03 13:04:16 51°44.812 2°41.81 17.1508 4.478867 34.602322 -3.020363
2011-10-03 13:05:16 51°44.692 2°41.811 17.1493 4.479282 34.601094 -3.020363
2011-10-03 13:06:16 51°44.493 2°41.834 17.1462 4.478971 34.599778 -3.020363
2011-10-03 13:07:16 51°44.279 2°41.887 17.1446 4.478037 34.593078 -3.020363
2011-10-03 13:08:16 51°44.062 2°41.932 17.1399 4.478659 34.598462 -3.020363
2011-10-03 13:09:16 51°43.843 2°41.964 17.1443 4.477726 34.59589 -3.020363
2011-10-03 13:10:16 51°43.625 2°41.997 17.151 4.478037 34.594454 -3.020363
2011-10-03 13:11:16 51°43.405 2°42.032 17.1585 4.479074 34.597235 -3.020363
2011-10-03 13:12:16 51°43.186 2°42.066 17.1595 4.479904 34.600286 -3.020363
2011-10-03 13:13:16 51°42.968 2°42.105 17.164 4.48063 34.601751 -3.020363
2011-10-03 13:14:16 51°42.748 2°42.141 17.1724 4.480734 34.599897 -3.020363
2011-10-03 13:15:16 51°42.529 2°42.168 17.1728 4.481045 34.597774 -3.020363
2011-10-03 13:16:16 51°42.311 2°42.205 17.1839 4.480941 34.592752 -3.020363
2011-10-03 13:17:16 51°42.094 2°42.25 17.1886 4.481149 34.58836 -3.020363
2011-10-03 13:18:16 51°41.875 2°42.276 17.1954 4.481045 34.582654 -3.020363
2011-10-03 13:19:16 51°41.658 2°42.308 17.2082 4.480941 34.574203 -3.020363
2011-10-03 13:20:16 51°41.441 2°42.352 17.2128 4.481044 34.567548 -3.020363
2011-10-03 13:21:16 51°41.224 2°42.384 17.2213 4.480837 34.558895 -3.020363
2011-10-03 13:22:16 51°41.009 2°42.422 17.2275 4.480733 34.551827 -3.020363
2011-10-03 13:23:16 51°40.796 2°42.484 17.2314 4.480214 34.54392 -3.020363
2011-10-03 13:24:16 51°40.586 2°42.561 17.2376 4.480214 34.537068 -3.020363
2011-10-03 13:25:16 51°40.374 2°42.633 17.2374 4.479799 34.530061 -3.020363
2011-10-03 13:26:16 51°40.16 2°42.704 17.2407 4.479281 34.526268 -3.020363
2011-10-03 13:27:16 51°39.946 2°42.773 17.239 4.479177 34.523319 -3.020363
2011-10-03 13:28:16 51°39.733 2°42.842 17.2386 4.478866 34.522687 -3.020363
2011-10-03 13:29:16 51°39.519 2°42.907 17.2321 4.478658 34.520896 -3.020363
2011-10-03 13:30:16 51°39.305 2°42.983 17.233 4.478451 34.521844 -3.020363
2011-10-03 13:31:16 51°39.093 2°43.062 17.2269 4.478658 34.523635 -3.020363
2011-10-03 13:32:16 51°38.878 2°43.131 17.2228 4.478243 34.526902 -3.020363
2011-10-03 13:33:16 51°38.663 2°43.2 17.2218 4.478451 34.530749 -3.020363
2011-10-03 13:34:16 51°38.447 2°43.266 17.2241 4.478243 34.529643 -3.020363
2011-10-03 13:35:16 51°38.234 2°43.343 17.2346 4.478347 34.527113 -3.020363
2011-10-03 13:36:16 51°38.018 2°43.414 17.2404 4.478451 34.51979 -3.020363
2011-10-03 13:37:16 51°37.805 2°43.493 17.2452 4.478347 34.514787 -3.020363
2011-10-03 13:38:16 51°37.589 2°43.553 17.2483 4.478347 34.51068 -3.020363
2011-10-03 13:39:16 51°37.376 2°43.621 17.2488 4.478762 34.511523 -3.020363
2011-10-03 13:40:16 51°37.164 2°43.7 17.2564 4.478969 34.510576 -3.020363
2011-10-03 13:41:16 51°36.951 2°43.778 17.2584 4.479073 34.507367 -3.020363
2011-10-03 13:42:16 51°36.737 2°43.848 17.2586 4.478347 34.509996 -3.020363
2011-10-03 13:43:16 51°36.524 2°43.915 17.2667 4.477724 34.505309 -3.020363
2011-10-03 13:44:16 51°36.311 2°43.976 17.2679 4.477932 34.504362 -3.020363
2011-10-03 13:45:16 51°36.1 2°44.051 17.2705 4.478036 34.505942 -3.020363
2011-10-03 13:46:16 51°35.891 2°44.133 17.265 4.477724 34.502572 -3.020363
2011-10-03 13:47:16 51°35.679 2°44.198 17.2595 4.478139 34.50889 -3.020363
2011-10-03 13:48:16 51°35.469 2°44.264 17.2545 4.478554 34.515893 -3.020363
2011-10-03 13:49:16 51°35.262 2°44.337 17.2529 4.478762 34.525215 -3.020363
2011-10-03 13:50:16 51°35.055 2°44.418 17.2577 4.479073 34.527902 -3.020363
2011-10-03 13:51:16 51°34.846 2°44.482 17.2533 4.480007 34.531166 -3.020363
2011-10-03 13:52:16 51°34.636 2°44.551 17.2592 4.48094 34.534431 -3.020363
2011-10-03 13:53:16 51°34.431 2°44.629 17.267 4.481563 34.539803 -3.020363
2011-10-03 13:54:16 51°34.224 2°44.711 17.267 4.481044 34.534641 -3.020363
2011-10-03 13:55:16 51°34.018 2°44.785 17.2598 4.480733 34.531955 -3.020363
2011-10-03 13:56:16 51°33.811 2°44.85 17.2583 4.480421 34.529954 -3.020363
2011-10-03 13:57:16 51°33.602 2°44.925 17.2534 4.478969 34.520843 -3.020363
2011-10-03 13:58:16 51°33.394 2°44.999 17.2639 4.478969 34.520843 -3.020363
2011-10-03 13:59:16 51°33.184 2°45.077 17.2607 4.478139 34.518473 -3.020363
2011-10-03 14:00:16 51°32.974 2°45.141 17.2549 4.476895 34.504306 -3.020363
2011-10-03 14:01:16 51°32.764 2°45.213 17.2585 4.476376 34.499829 -3.020363
2011-10-03 14:02:16 51°32.556 2°45.293 17.26 4.474509 34.480295 -3.020363
2011-10-03 14:03:16 51°32.349 2°45.365 17.2751 4.474301 34.474403 -3.020363
2011-10-03 14:04:16 51°32.141 2°45.441 17.2793 4.473056 34.456831 -3.020363
2011-10-03 14:05:16 51°31.931 2°45.502 17.287 4.472537 34.446894 -3.020363
2011-10-03 14:06:16 51°31.726 2°45.583 17.3059 4.47316 34.444753 -3.020363
2011-10-03 14:07:16 51°31.519 2°45.656 17.3162 4.473471 34.43379 -3.020363
2011-10-03 14:08:16 51°31.311 2°45.733 17.3232 4.474197 34.431866 -3.020363
2011-10-03 14:09:16 51°31.105 2°45.808 17.3263 4.473885 34.42305 -3.020363
2011-10-03 14:10:16 51°30.898 2°45.884 17.339 4.472122 34.40922 -3.020363
2011-10-03 14:11:16 51°30.69 2°45.947 17.3216 4.471603 34.402027 -3.020363
2011-10-03 14:12:16 51°30.484 2°46.024 17.3193 4.470981 34.398027 -3.020363
2011-10-03 14:13:16 51°30.28 2°46.112 17.327 4.472018 34.406283 -3.020363
2011-10-03 14:14:16 51°30.074 2°46.19 17.3306 4.472433 34.408495 -3.020363
2011-10-03 14:15:16 51°29.866 2°46.26 17.3272 4.473263 34.414282 -3.020363
2011-10-03 14:16:16 51°29.661 2°46.346 17.3278 4.474093 34.422112 -3.020363
2011-10-03 14:17:16 51°29.457 2°46.44 17.3283 4.475234 34.427172 -3.020363
2011-10-03 14:18:16 51°29.252 2°46.529 17.3259 4.474923 34.423129 -3.020363
2011-10-03 14:19:16 51°29.043 2°46.6 17.3294 4.472744 34.410495 -3.020363
2011-10-03 14:20:16 51°28.835 2°46.671 17.3166 4.470773 34.393517 -3.020363
2011-10-03 14:21:16 51°28.629 2°46.759 17.3182 4.468491 34.381346 -3.020363
2011-10-03 14:22:16 51°28.424 2°46.845 17.3051 4.466417 34.368917 -3.020363
2011-10-03 14:23:16 51°28.218 2°46.922 17.3111 4.465068 34.35934 -3.020363
2011-10-03 14:24:16 51°28.017 2°46.975 17.3068 4.461542 34.333035 -3.020363
2011-10-03 14:25:16 51°27.818 2°47.048 17.3178 4.439136 34.133322 -3.020363
2011-10-03 14:26:16 51°27.619 2°47.119 17.3033 4.426171 34.025803 -3.020363
2011-10-03 14:27:16 51°27.417 2°47.186 17.2872 4.4214 33.991489 -3.020363
2011-10-03 14:28:16 51°27.216 2°47.252 17.2607 4.41777 33.971696 -3.020363
2011-10-03 14:29:16 51°27.015 2°47.329 17.2566 4.414969 33.956345 -3.020363
2011-10-03 14:30:16 51°26.815 2°47.422 17.246 4.412065 33.945479 -3.020363
2011-10-03 14:31:16 51°26.614 2°47.511 17.2489 4.410613 33.93365 -3.020363
2011-10-03 14:32:16 51°26.41 2°47.589 17.2383 4.409369 33.92899 -3.020363
2011-10-03 14:33:16 51°26.209 2°47.695 17.2239 4.407502 33.921662 -3.020363
2011-10-03 14:34:16 51°26.01 2°47.804 17.2299 4.40688 33.92034 -3.020363
2011-10-03 14:35:16 51°25.808 2°47.904 17.2351 4.405531 33.915457 -3.020363
2011-10-03 14:36:16 51°25.608 2°47.962 17.223 4.405013 33.909644 -3.020363
2011-10-03 14:37:16 51°25.432 2°47.81 17.2051 4.403457 33.901626 -3.020363
2011-10-03 14:38:16 51°25.257 2°47.644 17.2063 4.400864 33.88938 -3.020363
2011-10-03 14:39:16 51°25.086 2°47.474 17.2227 4.39962 33.882693 -3.020363
2011-10-03 14:40:16 51°24.911 2°47.325 17.2525 4.391841 33.794206 -3.020363
2011-10-03 14:41:16 51°24.727 2°47.199 17.2554 4.381158 33.679548 -3.020363
2011-10-03 14:42:16 51°24.534 2°47.19 17.2664 4.37898 33.66082 -3.020363
2011-10-03 14:43:16 51°24.354 2°47.34 17.2535 4.375246 33.629387 -3.020363
2011-10-03 14:44:16 51°24.168 2°47.476 17.2401 4.372342 33.612418 -3.020363
2011-10-03 14:45:16 51°23.98 2°47.604 17.2278 4.368712 33.588536 -3.020363
2011-10-03 14:46:16 51°23.79 2°47.73 17.2119 4.363735 33.554385 -3.020363
2011-10-03 14:47:16 51°23.6 2°47.859 17.2216 4.35969 33.524261 -3.020363
2011-10-03 14:48:16 51°23.409 2°47.991 17.2206 4.355334 33.48415 -3.020363
2011-10-03 14:49:16 51°23.22 2°48.13 17.233 4.35046 33.442912 -3.020363
2011-10-03 14:50:16 51°23.029 2°48.261 17.2386 4.347971 33.408263 -3.020363
2011-10-03 14:51:16 51°22.832 2°48.372 17.2289 4.346622 33.392045 -3.020363
2011-10-03 14:52:16 51°22.64 2°48.498 17.2247 4.343823 33.379907 -3.020363
2011-10-03 14:53:16 51°22.448 2°48.633 17.2286 4.340919 33.364224 -3.020363
2011-10-03 14:54:16 51°22.251 2°48.748 17.2655 4.33843 33.330934 -3.020363
2011-10-03 14:55:16 51°22.06 2°48.886 17.2735 4.338429 33.306495 -3.020363
2011-10-03 14:56:16 51°21.867 2°49.026 17.2973 4.341437 33.317127 -3.020363
2011-10-03 14:57:16 51°21.675 2°49.167 17.2984 4.343511 33.321066 -3.020363
2011-10-03 14:58:16 51°21.486 2°49.298 17.358 4.345688 33.327212 -3.020363
2011-10-03 14:59:16 51°21.302 2°49.44 17.3977 4.345273 33.282832 -3.020363
2011-10-03 15:00:16 51°21.115 2°49.573 17.4082 4.338427 33.192096 -3.020363
2011-10-03 15:01:16 51°20.928 2°49.709 17.4077 4.332309 33.138463 -3.020363
2011-10-03 15:02:16 51°20.742 2°49.83 17.4617 4.321316 33.034062 -3.020363
2011-10-03 15:03:16 51°20.56 2°49.973 17.4983 4.309701 32.890098 -3.020363
2011-10-03 15:04:16 51°20.373 2°50.104 17.5168 4.307627 32.849129 -3.020363
2011-10-03 15:05:16 51°20.188 2°50.244 17.5238 4.303894 32.806348 -3.020363
2011-10-03 15:06:16 51°19.998 2°50.37 17.5262 4.303064 32.794123 -3.020363
2011-10-03 15:07:16 51°19.808 2°50.501 17.4973 4.302027 32.79948 -3.020363
2011-10-03 15:08:16 51°19.621 2°50.644 17.4908 4.301198 32.796928 -3.020363
2011-10-03 15:09:16 51°19.425 2°50.755 17.4599 4.29902 32.789987 -3.020363
2011-10-03 15:10:16 51°19.236 2°50.883 17.4708 4.296221 32.782903 -3.020363
2011-10-03 15:11:16 51°19.047 2°51 17.5253 4.294976 32.766487 -3.020363
2011-10-03 15:12:16 51°18.86 2°51.121 17.5484 4.293213 32.702533 -3.020363
2011-10-03 15:13:16 51°18.676 2°51.257 17.5798 4.29342 32.677968 -3.020363
2011-10-03 15:14:16 51°18.488 2°51.381 17.6264 4.291553 32.640308 -3.020363
2011-10-03 15:15:16 51°18.304 2°51.518 17.6256 4.289167 32.591274 -3.020363
2011-10-03 15:16:16 51°18.115 2°51.633 17.6142 4.287508 32.586131 -3.020363
2011-10-03 15:17:16 51°17.93 2°51.77 17.7519 4.290515 32.582923 -3.020363
2011-10-03 15:18:16 51°17.743 2°51.892 17.7849 4.300572 32.583428 -3.020363
2011-10-03 15:19:16 51°17.556 2°52.016 17.8033 4.306067 32.608311 -3.020363
2011-10-03 15:20:16 51°17.376 2°52.165 17.8459 4.313119 32.645056 -3.020363
2011-10-03 15:21:16 51°17.193 2°52.302 17.8167 4.334377 32.815964 -3.020363
2011-10-03 15:22:16 51°17.011 2°52.439 17.8329 4.355015 33.006746 -3.020363
2011-10-03 15:23:16 51°16.838 2°52.61 17.8734 4.377623 33.163463 -3.020363
2011-10-03 15:24:16 51°16.66 2°52.766 17.8645 4.403552 33.372164 -3.020363
2011-10-03 15:25:16 51°16.479 2°52.919 17.8688 4.426681 33.572235 -3.020363
2011-10-03 15:26:16 51°16.301 2°53.083 17.8534 4.451368 33.779171 -3.020363
2011-10-03 15:27:16 51°16.124 2°53.247 17.8268 4.470559 33.965365 -3.020363
2011-10-03 15:28:16 51°15.951 2°53.421 17.8816 4.478753 34.037062 -3.020363
2011-10-03 15:29:16 51°15.775 2°53.581 17.8865 4.470247 33.920394 -3.020363
2011-10-03 15:30:16 51°15.608 2°53.772 17.8451 4.45199 33.774588 -3.020363
2011-10-03 15:31:16 51°15.442 2°53.965 17.7285 4.436017 33.6915 -3.020363
2011-10-03 15:32:16 51°15.28 2°54.166 17.691 4.424816 33.665289 -3.020363
2011-10-03 15:33:16 51°15.116 2°54.371 17.7757 4.417141 33.617053 -3.020363
2011-10-03 15:34:16 51°14.953 2°54.574 17.827 4.430935 33.647654 -3.020363
2011-10-03 15:35:16 51°14.79 2°54.779 17.804 4.442552 33.741776 -3.020363
2011-10-03 15:36:16 51°14.626 2°54.979 17.8424 4.449605 33.803052 -3.020363
2011-10-03 15:37:16 51°14.452 2°55.148 18.0713 0.109132 0.630957 -3.020363
2011-10-03 15:38:16 51°14.303 2°55.287 18.1765 0.086099 0.493097 -3.020363
2011-10-03 15:39:16 51°14.178 2°55.391 18.2764 0.077257 0.44049 -3.020363
2011-10-03 15:40:16 51°14.076 2°55.464 18.3622 0.070471 0.400268 -3.020363
2011-10-03 15:41:16 51°14 2°55.517 18.4124 0.066255 0.375323 -3.020363
2011-10-03 15:42:16 51°13.933 2°55.565 18.4575 0.062656 0.354078 -3.020363
2011-10-03 15:43:16 51°13.864 2°55.613 18.5072 0.059572 0.335893 -3.020363
2011-10-03 15:44:16 51°13.783 2°55.688 18.6185 0.057104 0.321345 -3.020363
2011-10-03 15:45:16 51°13.715 2°55.801 18.6801 0.054842 0.308022 -3.020363
2011-10-03 15:46:16 51°13.668 2°55.899 18.7835 0.052992 0.297118 -3.020363
2011-10-03 15:47:20 51°13.641 2°55.988 18.8705 0.051347 0.287423 -3.020363